createdAt,value
2019-01-10T00:00:16.545Z,1019.11
2019-01-10T00:01:16.522Z,1019.11
2019-01-10T00:02:16.520Z,1019.13
2019-01-10T00:03:16.543Z,1019.09
2019-01-10T00:04:16.508Z,1019.13
2019-01-10T00:05:16.494Z,1019.16
2019-01-10T00:06:16.472Z,1019.15
2019-01-10T00:07:17.369Z,1019.16
2019-01-10T00:08:16.454Z,1019.13
2019-01-10T00:09:16.463Z,1019.15
2019-01-10T00:10:17.351Z,1019.11
2019-01-10T00:11:16.418Z,1019.15
2019-01-10T00:12:16.407Z,1019.17
2019-01-10T00:13:16.408Z,1019.10
2019-01-10T00:14:16.409Z,1019.17
2019-01-10T00:15:17.376Z,1019.13
2019-01-10T00:16:16.367Z,1019.16
2019-01-10T00:17:16.360Z,1019.16
2019-01-10T00:18:16.342Z,1019.21
2019-01-10T00:19:16.356Z,1019.19
2019-01-10T00:20:16.855Z,1019.22
2019-01-10T00:21:16.871Z,1019.22
2019-01-10T00:22:16.301Z,1019.15
2019-01-10T00:23:16.288Z,1019.17
2019-01-10T00:24:16.325Z,1019.16
2019-01-10T00:25:16.265Z,1019.13
2019-01-10T00:26:16.865Z,1019.13
2019-01-10T00:27:16.240Z,1019.16
2019-01-10T00:28:16.232Z,1019.17
2019-01-10T00:29:16.377Z,1019.17
2019-01-10T00:30:16.224Z,1019.14
2019-01-10T00:31:16.203Z,1019.13
2019-01-10T00:32:16.188Z,1019.13
2019-01-10T00:33:16.858Z,1019.17
2019-01-10T00:34:16.181Z,1019.24
2019-01-10T00:35:16.859Z,1019.19
2019-01-10T00:36:16.141Z,1019.25
2019-01-10T00:37:16.853Z,1019.28
2019-01-10T00:38:16.866Z,1019.27
2019-01-10T00:39:16.138Z,1019.27
2019-01-10T00:40:16.866Z,1019.27
2019-01-10T00:41:16.095Z,1019.22
2019-01-10T00:42:16.089Z,1019.24
2019-01-10T00:43:16.071Z,1019.18
2019-01-10T00:44:16.372Z,1019.23
2019-01-10T00:45:16.060Z,1019.22
2019-01-10T00:46:16.045Z,1019.24
2019-01-10T00:47:16.851Z,1019.24
2019-01-10T00:48:16.856Z,1019.18
2019-01-10T00:49:16.364Z,1019.15
2019-01-10T00:50:16.005Z,1019.19
2019-01-10T00:51:15.979Z,1019.19
2019-01-10T00:52:15.970Z,1019.22
2019-01-10T00:53:15.965Z,1019.24
2019-01-10T00:54:15.970Z,1019.27
2019-01-10T00:55:16.871Z,1019.28
2019-01-10T00:56:16.851Z,1019.28
2019-01-10T00:57:15.931Z,1019.29
2019-01-10T00:58:15.917Z,1019.32
2019-01-10T00:59:16.364Z,1019.35
2019-01-10T01:00:15.983Z,1019.34
2019-01-10T01:01:15.879Z,1019.35
2019-01-10T01:02:15.866Z,1019.34
2019-01-10T01:03:15.856Z,1019.38
2019-01-10T01:04:15.877Z,1019.34
2019-01-10T01:05:16.353Z,1019.39
2019-01-10T01:06:16.409Z,1019.36
2019-01-10T01:07:15.837Z,1019.37
2019-01-10T01:08:15.820Z,1019.41
2019-01-10T01:09:15.875Z,1019.43
2019-01-10T01:10:15.777Z,1019.38
2019-01-10T01:11:16.351Z,1019.41
2019-01-10T01:12:15.785Z,1019.40
2019-01-10T01:13:15.749Z,1019.39
2019-01-10T01:14:15.749Z,1019.47
2019-01-10T01:15:15.750Z,1019.43
2019-01-10T01:16:15.713Z,1019.41
2019-01-10T01:17:15.930Z,1019.43
2019-01-10T01:18:15.692Z,1019.48
2019-01-10T01:19:15.748Z,1019.52
2019-01-10T01:20:15.689Z,1019.48
2019-01-10T01:21:15.676Z,1019.52
2019-01-10T01:22:15.651Z,1019.47
2019-01-10T01:23:15.643Z,1019.50
2019-01-10T01:24:15.665Z,1019.52
2019-01-10T01:25:16.382Z,1019.47
2019-01-10T01:26:15.618Z,1019.49
2019-01-10T01:27:15.609Z,1019.53
2019-01-10T01:28:15.584Z,1019.52
2019-01-10T01:29:15.866Z,1019.55
2019-01-10T01:30:15.568Z,1019.57
2019-01-10T01:31:15.573Z,1019.57
2019-01-10T01:32:15.587Z,1019.56
2019-01-10T01:33:15.527Z,1019.61
2019-01-10T01:34:15.534Z,1019.61
2019-01-10T01:35:16.358Z,1019.64
2019-01-10T01:36:15.513Z,1019.68
2019-01-10T01:37:15.484Z,1019.62
2019-01-10T01:38:15.475Z,1019.64
2019-01-10T01:39:15.488Z,1019.60
2019-01-10T01:40:15.453Z,1019.61
2019-01-10T01:41:15.452Z,1019.66
2019-01-10T01:42:15.492Z,1019.64
2019-01-10T01:43:15.444Z,1019.68
2019-01-10T01:44:15.433Z,1019.69
2019-01-10T01:45:15.400Z,1019.66
2019-01-10T01:46:15.428Z,1019.71
2019-01-10T01:47:15.398Z,1019.65
2019-01-10T01:48:15.367Z,1019.68
2019-01-10T01:49:15.897Z,1019.70
2019-01-10T01:50:15.866Z,1019.74
2019-01-10T01:51:15.342Z,1019.78
2019-01-10T01:52:15.325Z,1019.77
2019-01-10T01:53:15.309Z,1019.82
2019-01-10T01:54:15.371Z,1019.74
2019-01-10T01:55:15.874Z,1019.79
2019-01-10T01:56:15.278Z,1019.84
2019-01-10T01:57:15.860Z,1019.81
2019-01-10T01:58:15.260Z,1019.79
2019-01-10T01:59:15.277Z,1019.84
2019-01-10T02:00:15.245Z,1019.86
2019-01-10T02:01:15.267Z,1019.84
2019-01-10T02:02:15.237Z,1019.84
2019-01-10T02:03:15.205Z,1019.82
2019-01-10T02:04:15.226Z,1019.82
2019-01-10T02:05:15.872Z,1019.83
2019-01-10T02:06:15.177Z,1019.82
2019-01-10T02:07:15.870Z,1019.83
2019-01-10T02:08:15.868Z,1019.86
2019-01-10T02:09:15.153Z,1019.92
2019-01-10T02:10:15.866Z,1019.90
2019-01-10T02:11:15.119Z,1019.90
2019-01-10T02:12:15.109Z,1019.90
2019-01-10T02:13:16.941Z,1019.94
2019-01-10T02:14:15.379Z,1019.96
2019-01-10T02:15:15.075Z,1019.99
2019-01-10T02:16:15.060Z,1019.97
2019-01-10T02:17:15.051Z,1020.00
2019-01-10T02:18:15.855Z,1020.00
2019-01-10T02:19:15.038Z,1020.02
2019-01-10T02:20:15.047Z,1020.02
2019-01-10T02:21:15.013Z,1019.98
2019-01-10T02:22:15.003Z,1019.99
2019-01-10T02:23:15.857Z,1019.95
2019-01-10T02:24:14.975Z,1020.00
2019-01-10T02:25:14.986Z,1020.01
2019-01-10T02:26:14.952Z,1019.97
2019-01-10T02:27:14.962Z,1019.99
2019-01-10T02:28:15.859Z,1019.96
2019-01-10T02:29:14.954Z,1019.97
2019-01-10T02:30:14.995Z,1019.93
2019-01-10T02:31:14.911Z,1019.94
2019-01-10T02:32:15.866Z,1019.99
2019-01-10T02:33:14.880Z,1019.98
2019-01-10T02:34:14.885Z,1020.04
2019-01-10T02:35:14.880Z,1020.05
2019-01-10T02:36:15.406Z,1020.07
2019-01-10T02:37:14.846Z,1020.06
2019-01-10T02:38:14.825Z,1020.04
2019-01-10T02:39:14.840Z,1020.06
2019-01-10T02:40:14.926Z,1020.10
2019-01-10T02:41:15.373Z,1020.07
2019-01-10T02:42:15.358Z,1020.11
2019-01-10T02:43:14.774Z,1020.08
2019-01-10T02:44:14.757Z,1020.17
2019-01-10T02:45:14.789Z,1020.15
2019-01-10T02:46:14.765Z,1020.18
2019-01-10T02:47:15.380Z,1020.21
2019-01-10T02:48:14.741Z,1020.26
2019-01-10T02:49:14.711Z,1020.27
2019-01-10T02:50:14.723Z,1020.27
2019-01-10T02:51:15.362Z,1020.29
2019-01-10T02:52:14.674Z,1020.30
2019-01-10T02:53:14.658Z,1020.34
2019-01-10T02:54:14.662Z,1020.33
2019-01-10T02:55:14.660Z,1020.29
2019-01-10T02:56:14.626Z,1020.32
2019-01-10T02:57:15.363Z,1020.32
2019-01-10T02:58:14.607Z,1020.26
2019-01-10T02:59:15.366Z,1020.27
2019-01-10T03:00:14.883Z,1020.29
2019-01-10T03:01:15.382Z,1020.26
2019-01-10T03:02:14.567Z,1020.26
2019-01-10T03:03:14.554Z,1020.24
2019-01-10T03:04:15.369Z,1020.23
2019-01-10T03:05:14.562Z,1020.23
2019-01-10T03:06:14.524Z,1020.21
2019-01-10T03:07:14.511Z,1020.19
2019-01-10T03:08:14.498Z,1020.22
2019-01-10T03:09:14.486Z,1020.18
2019-01-10T03:10:14.527Z,1020.19
2019-01-10T03:11:14.473Z,1020.22
2019-01-10T03:12:14.466Z,1020.26
2019-01-10T03:13:14.448Z,1020.22
2019-01-10T03:14:14.434Z,1020.21
2019-01-10T03:15:14.436Z,1020.20
2019-01-10T03:16:15.367Z,1020.18
2019-01-10T03:17:14.406Z,1020.20
2019-01-10T03:18:14.399Z,1020.19
2019-01-10T03:19:14.380Z,1020.18
2019-01-10T03:20:14.386Z,1020.17
2019-01-10T03:21:14.879Z,1020.18
2019-01-10T03:22:14.868Z,1020.17
2019-01-10T03:23:14.862Z,1020.20
2019-01-10T03:24:14.327Z,1020.26
2019-01-10T03:25:14.333Z,1020.17
2019-01-10T03:26:14.320Z,1020.20
2019-01-10T03:27:14.862Z,1020.13
2019-01-10T03:28:14.286Z,1020.16
2019-01-10T03:29:14.277Z,1020.17
2019-01-10T03:30:14.293Z,1020.18
2019-01-10T03:31:14.254Z,1020.18
2019-01-10T03:32:14.243Z,1020.21
2019-01-10T03:33:14.863Z,1020.26
2019-01-10T03:34:14.225Z,1020.22
2019-01-10T03:35:14.245Z,1020.18
2019-01-10T03:36:14.198Z,1020.15
2019-01-10T03:37:14.875Z,1020.15
2019-01-10T03:38:14.866Z,1020.13
2019-01-10T03:39:14.175Z,1020.17
2019-01-10T03:40:14.383Z,1020.16
2019-01-10T03:41:14.866Z,1020.16
2019-01-10T03:42:14.134Z,1020.18
2019-01-10T03:43:14.134Z,1020.16
2019-01-10T03:44:14.110Z,1020.12
2019-01-10T03:45:14.115Z,1020.15
2019-01-10T03:46:14.087Z,1020.21
2019-01-10T03:47:14.074Z,1020.19
2019-01-10T03:48:14.073Z,1020.17
2019-01-10T03:49:14.063Z,1020.19
2019-01-10T03:50:14.089Z,1020.20
2019-01-10T03:51:14.048Z,1020.22
2019-01-10T03:52:14.024Z,1020.18
2019-01-10T03:53:14.013Z,1020.24
2019-01-10T03:54:14.000Z,1020.26
2019-01-10T03:55:14.011Z,1020.29
2019-01-10T03:56:14.880Z,1020.26
2019-01-10T03:57:13.969Z,1020.22
2019-01-10T03:58:13.958Z,1020.21
2019-01-10T03:59:13.947Z,1020.24
2019-01-10T04:00:13.950Z,1020.24
2019-01-10T04:01:14.880Z,1020.28
2019-01-10T04:02:13.923Z,1020.32
2019-01-10T04:03:13.905Z,1020.29
2019-01-10T04:04:13.895Z,1020.28
2019-01-10T04:05:13.904Z,1020.26
2019-01-10T04:06:14.877Z,1020.26
2019-01-10T04:07:13.861Z,1020.26
2019-01-10T04:08:14.367Z,1020.24
2019-01-10T04:09:13.837Z,1020.21
2019-01-10T04:10:13.842Z,1020.24
2019-01-10T04:11:13.819Z,1020.25
2019-01-10T04:12:13.811Z,1020.29
2019-01-10T04:13:13.801Z,1020.28
2019-01-10T04:14:13.786Z,1020.30
2019-01-10T04:15:13.882Z,1020.29
2019-01-10T04:16:13.759Z,1020.28
2019-01-10T04:17:13.753Z,1020.32
2019-01-10T04:18:13.740Z,1020.35
2019-01-10T04:19:13.739Z,1020.39
2019-01-10T04:20:13.736Z,1020.33
2019-01-10T04:21:17.412Z,1020.34
2019-01-10T04:22:13.696Z,1020.36
2019-01-10T04:23:13.685Z,1020.38
2019-01-10T04:24:13.676Z,1020.37
2019-01-10T04:25:13.669Z,1020.38
2019-01-10T04:26:13.663Z,1020.31
2019-01-10T04:27:13.641Z,1020.37
2019-01-10T04:28:14.375Z,1020.36
2019-01-10T04:29:13.619Z,1020.33
2019-01-10T04:30:13.614Z,1020.37
2019-01-10T04:31:13.611Z,1020.35
2019-01-10T04:32:14.365Z,1020.35
2019-01-10T04:33:13.574Z,1020.35
2019-01-10T04:34:14.369Z,1020.39
2019-01-10T04:35:13.578Z,1020.43
2019-01-10T04:36:13.896Z,1020.41
2019-01-10T04:37:13.594Z,1020.40
2019-01-10T04:38:13.562Z,1020.35
2019-01-10T04:39:13.512Z,1020.41
2019-01-10T04:40:14.474Z,1020.41
2019-01-10T04:41:13.513Z,1020.39
2019-01-10T04:42:13.477Z,1020.40
2019-01-10T04:43:13.481Z,1020.42
2019-01-10T04:44:13.463Z,1020.40
2019-01-10T04:45:14.373Z,1020.40
2019-01-10T04:46:13.459Z,1020.40
2019-01-10T04:47:13.421Z,1020.41
2019-01-10T04:48:14.366Z,1020.43
2019-01-10T04:49:13.404Z,1020.48
2019-01-10T04:50:14.381Z,1020.45
2019-01-10T04:51:13.410Z,1020.38
2019-01-10T04:52:13.371Z,1020.36
2019-01-10T04:53:13.880Z,1020.36
2019-01-10T04:54:13.364Z,1020.40
2019-01-10T04:55:13.880Z,1020.38
2019-01-10T04:56:13.388Z,1020.42
2019-01-10T04:57:13.321Z,1020.41
2019-01-10T04:58:13.877Z,1020.47
2019-01-10T04:59:13.316Z,1020.45
2019-01-10T05:00:13.316Z,1020.45
2019-01-10T05:01:13.293Z,1020.46
2019-01-10T05:02:18.284Z,1020.45
2019-01-10T05:03:13.247Z,1020.49
2019-01-10T05:04:13.264Z,1020.52
2019-01-10T05:05:13.234Z,1020.50
2019-01-10T05:06:13.250Z,1020.53
2019-01-10T05:07:13.892Z,1020.51
2019-01-10T05:08:13.199Z,1020.50
2019-01-10T05:09:13.183Z,1020.47
2019-01-10T05:10:13.175Z,1020.50
2019-01-10T05:11:13.177Z,1020.51
2019-01-10T05:12:13.182Z,1020.50
2019-01-10T05:13:13.137Z,1020.42
2019-01-10T05:14:16.732Z,1020.50
2019-01-10T05:15:13.123Z,1020.51
2019-01-10T05:16:13.415Z,1020.48
2019-01-10T05:17:13.107Z,1020.46
2019-01-10T05:18:13.872Z,1020.49
2019-01-10T05:19:13.107Z,1020.43
2019-01-10T05:20:13.108Z,1020.49
2019-01-10T05:21:13.516Z,1020.47
2019-01-10T05:22:13.873Z,1020.47
2019-01-10T05:23:13.037Z,1020.44
2019-01-10T05:24:13.017Z,1020.45
2019-01-10T05:25:13.011Z,1020.40
2019-01-10T05:26:13.016Z,1020.41
2019-01-10T05:27:12.984Z,1020.36
2019-01-10T05:28:12.986Z,1020.33
2019-01-10T05:29:13.869Z,1020.36
2019-01-10T05:30:13.877Z,1020.32
2019-01-10T05:31:12.963Z,1020.36
2019-01-10T05:32:13.878Z,1020.37
2019-01-10T05:33:13.873Z,1020.37
2019-01-10T05:34:12.929Z,1020.36
2019-01-10T05:35:12.898Z,1020.36
2019-01-10T05:36:12.938Z,1020.31
2019-01-10T05:37:13.905Z,1020.32
2019-01-10T05:38:12.869Z,1020.30
2019-01-10T05:39:12.863Z,1020.33
2019-01-10T05:40:12.846Z,1020.31
2019-01-10T05:41:12.896Z,1020.35
2019-01-10T05:42:13.625Z,1020.38
2019-01-10T05:43:13.401Z,1020.37
2019-01-10T05:44:13.373Z,1020.31
2019-01-10T05:45:13.383Z,1020.34
2019-01-10T05:46:12.906Z,1020.39
2019-01-10T05:47:12.769Z,1020.38
2019-01-10T05:48:12.759Z,1020.42
2019-01-10T05:49:12.744Z,1020.42
2019-01-10T05:50:12.742Z,1020.42
2019-01-10T05:51:12.881Z,1020.45
2019-01-10T05:52:12.718Z,1020.44
2019-01-10T05:53:13.375Z,1020.45
2019-01-10T05:54:12.695Z,1020.49
2019-01-10T05:55:13.379Z,1020.45
2019-01-10T05:56:15.562Z,1020.44
2019-01-10T05:57:12.663Z,1020.49
2019-01-10T05:58:13.374Z,1020.50
2019-01-10T05:59:12.659Z,1020.51
2019-01-10T06:00:13.375Z,1020.51
2019-01-10T06:01:12.905Z,1020.55
2019-01-10T06:02:12.614Z,1020.54
2019-01-10T06:03:12.610Z,1020.53
2019-01-10T06:04:13.395Z,1020.56
2019-01-10T06:05:12.655Z,1020.61
2019-01-10T06:06:12.582Z,1020.59
2019-01-10T06:07:12.560Z,1020.64
2019-01-10T06:08:12.543Z,1020.76
2019-01-10T06:09:13.386Z,1020.70
2019-01-10T06:10:12.516Z,1020.75
2019-01-10T06:11:12.526Z,1020.73
2019-01-10T06:12:13.377Z,1020.76
2019-01-10T06:13:13.374Z,1020.76
2019-01-10T06:14:12.472Z,1020.79
2019-01-10T06:15:12.473Z,1020.76
2019-01-10T06:16:12.900Z,1020.79
2019-01-10T06:17:12.440Z,1020.77
2019-01-10T06:18:12.432Z,1020.87
2019-01-10T06:19:13.372Z,1020.82
2019-01-10T06:20:12.419Z,1020.81
2019-01-10T06:21:12.889Z,1020.81
2019-01-10T06:22:12.386Z,1020.82
2019-01-10T06:23:12.378Z,1020.83
2019-01-10T06:24:12.366Z,1020.78
2019-01-10T06:25:12.369Z,1020.83
2019-01-10T06:26:12.348Z,1020.88
2019-01-10T06:27:12.448Z,1020.90
2019-01-10T06:28:12.322Z,1020.91
2019-01-10T06:29:12.312Z,1020.93
2019-01-10T06:30:12.300Z,1020.95
2019-01-10T06:31:12.872Z,1020.94
2019-01-10T06:32:12.301Z,1020.92
2019-01-10T06:33:12.270Z,1020.93
2019-01-10T06:34:12.965Z,1021.00
2019-01-10T06:35:12.245Z,1020.95
2019-01-10T06:36:12.235Z,1020.95
2019-01-10T06:37:12.240Z,1020.97
2019-01-10T06:38:12.219Z,1020.99
2019-01-10T06:39:12.203Z,1021.02
2019-01-10T06:40:12.195Z,1021.05
2019-01-10T06:41:12.191Z,1021.05
2019-01-10T06:42:12.395Z,1021.04
2019-01-10T06:43:12.176Z,1021.08
2019-01-10T06:44:12.158Z,1021.02
2019-01-10T06:45:12.138Z,1021.01
2019-01-10T06:46:12.131Z,1021.01
2019-01-10T06:47:12.393Z,1021.05
2019-01-10T06:48:12.872Z,1021.09
2019-01-10T06:49:12.100Z,1021.08
2019-01-10T06:50:12.084Z,1021.02
2019-01-10T06:51:12.079Z,1021.02
2019-01-10T06:52:12.084Z,1021.05
2019-01-10T06:53:12.874Z,1021.08
2019-01-10T06:54:12.882Z,1021.06
2019-01-10T06:55:12.885Z,1021.05
2019-01-10T06:56:12.041Z,1021.07
2019-01-10T06:57:12.026Z,1021.08
2019-01-10T06:58:12.879Z,1021.09
2019-01-10T06:59:12.897Z,1021.11
2019-01-10T07:00:11.975Z,1021.12
2019-01-10T07:01:12.878Z,1021.17
2019-01-10T07:02:11.974Z,1021.10
2019-01-10T07:03:12.875Z,1021.13
2019-01-10T07:04:11.945Z,1021.13
2019-01-10T07:05:11.924Z,1021.19
2019-01-10T07:06:11.924Z,1021.14
2019-01-10T07:07:12.387Z,1021.17
2019-01-10T07:08:11.895Z,1021.16
2019-01-10T07:09:11.883Z,1021.20
2019-01-10T07:10:12.382Z,1021.22
2019-01-10T07:11:11.881Z,1021.24
2019-01-10T07:12:11.872Z,1021.25
2019-01-10T07:13:11.839Z,1021.25
2019-01-10T07:14:11.829Z,1021.20
2019-01-10T07:15:11.824Z,1021.27
2019-01-10T07:16:11.818Z,1021.15
2019-01-10T07:17:11.810Z,1021.23
2019-01-10T07:18:11.796Z,1021.20
2019-01-10T07:19:11.811Z,1021.25
2019-01-10T07:20:11.791Z,1021.23
2019-01-10T07:21:12.384Z,1021.24
2019-01-10T07:22:11.791Z,1021.27
2019-01-10T07:23:11.746Z,1021.27
2019-01-10T07:24:11.736Z,1021.29
2019-01-10T07:25:11.711Z,1021.27
2019-01-10T07:26:11.698Z,1021.29
2019-01-10T07:27:11.708Z,1021.31
2019-01-10T07:28:11.693Z,1021.32
2019-01-10T07:29:11.683Z,1021.31
2019-01-10T07:30:12.383Z,1021.30
2019-01-10T07:31:11.645Z,1021.27
2019-01-10T07:32:11.905Z,1021.30
2019-01-10T07:33:12.377Z,1021.32
2019-01-10T07:34:11.612Z,1021.25
2019-01-10T07:35:11.599Z,1021.26
2019-01-10T07:36:11.606Z,1021.23
2019-01-10T07:37:12.893Z,1021.26
2019-01-10T07:38:11.569Z,1021.26
2019-01-10T07:39:11.558Z,1021.25
2019-01-10T07:40:11.573Z,1021.27
2019-01-10T07:41:11.543Z,1021.28
2019-01-10T07:42:11.895Z,1021.30
2019-01-10T07:43:11.514Z,1021.25
2019-01-10T07:44:11.502Z,1021.25
2019-01-10T07:45:12.381Z,1021.32
2019-01-10T07:46:11.483Z,1021.37
2019-01-10T07:47:11.494Z,1021.36
2019-01-10T07:48:12.376Z,1021.34
2019-01-10T07:49:11.448Z,1021.34
2019-01-10T07:50:11.435Z,1021.49
2019-01-10T07:51:11.463Z,1021.46
2019-01-10T07:52:11.442Z,1021.47
2019-01-10T07:53:12.383Z,1021.47
2019-01-10T07:54:12.382Z,1021.46
2019-01-10T07:55:11.384Z,1021.49
2019-01-10T07:56:11.381Z,1021.44
2019-01-10T07:57:11.400Z,1021.46
2019-01-10T07:58:11.351Z,1021.44
2019-01-10T07:59:11.881Z,1021.48
2019-01-10T08:00:11.334Z,1021.47
2019-01-10T08:01:11.320Z,1021.43
2019-01-10T08:02:11.339Z,1021.49
2019-01-10T08:03:11.312Z,1021.44
2019-01-10T08:04:11.288Z,1021.45
2019-01-10T08:05:11.286Z,1021.43
2019-01-10T08:06:11.266Z,1021.55
2019-01-10T08:07:11.405Z,1021.56
2019-01-10T08:08:11.251Z,1021.55
2019-01-10T08:09:11.233Z,1021.57
2019-01-10T08:10:11.227Z,1021.62
2019-01-10T08:11:11.211Z,1021.64
2019-01-10T08:12:11.234Z,1021.60
2019-01-10T08:13:11.188Z,1021.61
2019-01-10T08:14:11.201Z,1021.64
2019-01-10T08:15:11.864Z,1021.66
2019-01-10T08:16:11.271Z,1021.65
2019-01-10T08:17:15.889Z,1021.64
2019-01-10T08:18:11.147Z,1021.66
2019-01-10T08:19:11.912Z,1021.72
2019-01-10T08:20:11.197Z,1021.71
2019-01-10T08:21:11.129Z,1021.78
2019-01-10T08:22:11.151Z,1021.78
2019-01-10T08:23:11.084Z,1021.86
2019-01-10T08:24:11.088Z,1021.84
2019-01-10T08:25:11.093Z,1021.81
2019-01-10T08:26:12.035Z,1021.86
2019-01-10T08:27:11.071Z,1021.86
2019-01-10T08:28:11.049Z,1021.85
2019-01-10T08:29:11.030Z,1021.77
2019-01-10T08:30:11.010Z,1021.85
2019-01-10T08:31:11.001Z,1021.83
2019-01-10T08:32:10.989Z,1021.85
2019-01-10T08:33:10.991Z,1021.91
2019-01-10T08:34:10.966Z,1021.88
2019-01-10T08:35:10.959Z,1021.85
2019-01-10T08:36:10.949Z,1021.86
2019-01-10T08:37:12.282Z,1021.83
2019-01-10T08:38:10.949Z,1021.83
2019-01-10T08:39:10.911Z,1021.82
2019-01-10T08:40:11.880Z,1021.83
2019-01-10T08:41:10.897Z,1021.81
2019-01-10T08:42:11.399Z,1021.81
2019-01-10T08:43:11.861Z,1021.83
2019-01-10T08:44:11.380Z,1021.90
2019-01-10T08:45:10.853Z,1021.88
2019-01-10T08:46:10.846Z,1021.92
2019-01-10T08:47:11.393Z,1021.89
2019-01-10T08:48:10.842Z,1021.90
2019-01-10T08:49:10.832Z,1021.89
2019-01-10T08:50:10.818Z,1021.86
2019-01-10T08:51:10.783Z,1021.87
2019-01-10T08:52:10.771Z,1021.90
2019-01-10T08:53:10.779Z,1021.88
2019-01-10T08:54:10.760Z,1021.90
2019-01-10T08:55:11.383Z,1021.95
2019-01-10T08:56:11.385Z,1021.87
2019-01-10T08:57:11.382Z,1022.00
2019-01-10T08:58:10.729Z,1021.92
2019-01-10T08:59:10.704Z,1021.91
2019-01-10T09:00:11.408Z,1021.95
2019-01-10T09:01:11.442Z,1021.97
2019-01-10T09:02:10.702Z,1022.00
2019-01-10T09:03:10.892Z,1021.97
2019-01-10T09:04:10.648Z,1021.96
2019-01-10T09:05:12.358Z,1021.96
2019-01-10T09:06:10.629Z,1021.88
2019-01-10T09:07:10.619Z,1021.95
2019-01-10T09:08:10.640Z,1021.92
2019-01-10T09:09:10.600Z,1021.98
2019-01-10T09:10:11.385Z,1021.99
2019-01-10T09:11:10.577Z,1022.03
2019-01-10T09:12:11.474Z,1022.05
2019-01-10T09:13:10.903Z,1022.10
2019-01-10T09:14:11.392Z,1022.01
2019-01-10T09:15:11.391Z,1022.05
2019-01-10T09:16:10.515Z,1021.99
2019-01-10T09:17:10.502Z,1022.06
2019-01-10T09:18:10.918Z,1022.00
2019-01-10T09:19:10.504Z,1022.03
2019-01-10T09:20:11.386Z,1022.07
2019-01-10T09:21:11.384Z,1022.13
2019-01-10T09:22:10.453Z,1022.13
2019-01-10T09:23:10.910Z,1022.09
2019-01-10T09:24:11.399Z,1022.11
2019-01-10T09:25:11.405Z,1022.10
2019-01-10T09:26:10.429Z,1022.05
2019-01-10T09:27:10.415Z,1022.02
2019-01-10T09:28:10.902Z,1022.10
2019-01-10T09:29:10.384Z,1022.05
2019-01-10T09:30:10.362Z,1022.16
2019-01-10T09:31:10.355Z,1022.14
2019-01-10T09:32:10.342Z,1022.11
2019-01-10T09:33:10.398Z,1022.09
2019-01-10T09:34:10.899Z,1022.13
2019-01-10T09:35:10.319Z,1022.19
2019-01-10T09:36:10.895Z,1022.20
2019-01-10T09:37:10.297Z,1022.23
2019-01-10T09:38:10.303Z,1022.25
2019-01-10T09:39:10.886Z,1022.24
2019-01-10T09:40:10.254Z,1022.26
2019-01-10T09:41:10.255Z,1022.28
2019-01-10T09:42:10.908Z,1022.27
2019-01-10T09:43:10.280Z,1022.31
2019-01-10T09:44:10.220Z,1022.31
2019-01-10T09:45:10.201Z,1022.22
2019-01-10T09:46:10.883Z,1022.28
2019-01-10T09:47:10.287Z,1022.24
2019-01-10T09:48:10.400Z,1022.27
2019-01-10T09:49:10.162Z,1022.26
2019-01-10T09:50:10.151Z,1022.30
2019-01-10T09:51:10.139Z,1022.29
2019-01-10T09:52:10.177Z,1022.32
2019-01-10T09:53:10.144Z,1022.35
2019-01-10T09:54:10.889Z,1022.35
2019-01-10T09:55:10.108Z,1022.34
2019-01-10T09:56:10.084Z,1022.35
2019-01-10T09:57:10.085Z,1022.38
2019-01-10T09:58:10.407Z,1022.28
2019-01-10T09:59:10.050Z,1022.32
2019-01-10T10:00:10.041Z,1022.39
2019-01-10T10:01:10.032Z,1022.35
2019-01-10T10:02:10.023Z,1022.40
2019-01-10T10:03:10.036Z,1022.39
2019-01-10T10:04:10.949Z,1022.35
2019-01-10T10:05:10.885Z,1022.37
2019-01-10T10:06:10.887Z,1022.34
2019-01-10T10:07:11.086Z,1022.33
2019-01-10T10:08:09.970Z,1022.39
2019-01-10T10:09:09.947Z,1022.40
2019-01-10T10:10:10.891Z,1022.45
2019-01-10T10:11:09.925Z,1022.45
2019-01-10T10:12:09.996Z,1022.46
2019-01-10T10:13:10.425Z,1022.39
2019-01-10T10:14:10.895Z,1022.40
2019-01-10T10:15:09.920Z,1022.38
2019-01-10T10:16:10.403Z,1022.33
2019-01-10T10:17:10.406Z,1022.41
2019-01-10T10:18:09.907Z,1022.41
2019-01-10T10:19:10.405Z,1022.36
2019-01-10T10:20:10.399Z,1022.34
2019-01-10T10:21:09.814Z,1022.36
2019-01-10T10:22:10.394Z,1022.42
2019-01-10T10:23:09.812Z,1022.42
2019-01-10T10:24:09.784Z,1022.40
2019-01-10T10:25:10.417Z,1022.39
2019-01-10T10:26:10.393Z,1022.45
2019-01-10T10:27:09.756Z,1022.41
2019-01-10T10:28:09.764Z,1022.44
2019-01-10T10:29:09.732Z,1022.42
2019-01-10T10:30:09.875Z,1022.40
2019-01-10T10:31:10.392Z,1022.32
2019-01-10T10:32:10.406Z,1022.37
2019-01-10T10:33:09.735Z,1022.38
2019-01-10T10:34:09.684Z,1022.34
2019-01-10T10:35:09.670Z,1022.31
2019-01-10T10:36:10.399Z,1022.26
2019-01-10T10:37:09.655Z,1022.22
2019-01-10T10:38:10.396Z,1022.29
2019-01-10T10:39:09.661Z,1022.29
2019-01-10T10:40:09.620Z,1022.30
2019-01-10T10:41:10.399Z,1022.25
2019-01-10T10:42:09.596Z,1022.32
2019-01-10T10:43:09.596Z,1022.36
2019-01-10T10:44:09.605Z,1022.42
2019-01-10T10:45:09.618Z,1022.42
2019-01-10T10:46:09.567Z,1022.35
2019-01-10T10:47:09.564Z,1022.33
2019-01-10T10:48:13.544Z,1022.29
2019-01-10T10:49:09.901Z,1022.31
2019-01-10T10:50:09.504Z,1022.32
2019-01-10T10:51:09.501Z,1022.33
2019-01-10T10:52:09.479Z,1022.39
2019-01-10T10:53:09.470Z,1022.35
2019-01-10T10:54:09.900Z,1022.40
2019-01-10T10:55:09.453Z,1022.36
2019-01-10T10:56:09.444Z,1022.35
2019-01-10T10:57:10.407Z,1022.37
2019-01-10T10:58:10.388Z,1022.35
2019-01-10T10:59:09.903Z,1022.39
2019-01-10T11:00:10.395Z,1022.39
2019-01-10T11:01:09.909Z,1022.41
2019-01-10T11:02:09.890Z,1022.42
2019-01-10T11:03:09.360Z,1022.40
2019-01-10T11:04:09.408Z,1022.40
2019-01-10T11:05:09.349Z,1022.33
2019-01-10T11:06:09.333Z,1022.34
2019-01-10T11:07:09.320Z,1022.39
2019-01-10T11:08:09.308Z,1022.41
2019-01-10T11:09:09.627Z,1022.43
2019-01-10T11:10:09.324Z,1022.41
2019-01-10T11:11:09.283Z,1022.39
2019-01-10T11:12:09.266Z,1022.38
2019-01-10T11:13:09.256Z,1022.35
2019-01-10T11:14:09.407Z,1022.39
2019-01-10T11:15:09.890Z,1022.34
2019-01-10T11:16:10.703Z,1022.39
2019-01-10T11:17:09.215Z,1022.39
2019-01-10T11:18:09.895Z,1022.38
2019-01-10T11:19:09.205Z,1022.37
2019-01-10T11:20:09.193Z,1022.33
2019-01-10T11:21:09.178Z,1022.37
2019-01-10T11:22:09.895Z,1022.32
2019-01-10T11:23:10.887Z,1022.33
2019-01-10T11:24:08.163Z,1022.33
2019-01-10T11:25:09.907Z,1022.27
2019-01-10T11:26:09.127Z,1022.29
2019-01-10T11:27:09.112Z,1022.30
2019-01-10T11:28:09.095Z,1022.31
2019-01-10T11:29:09.101Z,1022.23
2019-01-10T11:30:09.897Z,1022.36
2019-01-10T11:31:09.059Z,1022.34
2019-01-10T11:32:13.389Z,1022.30
2019-01-10T11:33:09.042Z,1022.32
2019-01-10T11:34:09.423Z,1022.29
2019-01-10T11:35:09.030Z,1022.26
2019-01-10T11:36:09.006Z,1022.21
2019-01-10T11:37:08.996Z,1022.17
2019-01-10T11:38:08.987Z,1022.16
2019-01-10T11:39:08.989Z,1022.16
2019-01-10T11:40:08.983Z,1022.15
2019-01-10T11:41:08.951Z,1022.16
2019-01-10T11:42:09.933Z,1022.15
2019-01-10T11:43:09.925Z,1022.15
2019-01-10T11:44:08.938Z,1022.14
2019-01-10T11:45:08.926Z,1022.14
2019-01-10T11:46:08.904Z,1022.11
2019-01-10T11:47:09.432Z,1022.12
2019-01-10T11:48:09.395Z,1022.15
2019-01-10T11:49:08.907Z,1022.10
2019-01-10T11:50:08.862Z,1022.13
2019-01-10T11:51:08.844Z,1022.16
2019-01-10T11:52:08.846Z,1022.16
2019-01-10T11:53:08.826Z,1022.13
2019-01-10T11:54:08.918Z,1022.16
2019-01-10T11:55:08.805Z,1022.12
2019-01-10T11:56:08.787Z,1022.10
2019-01-10T11:57:08.771Z,1022.09
2019-01-10T11:58:08.766Z,1022.11
2019-01-10T11:59:08.773Z,1022.12
2019-01-10T12:00:10.424Z,1022.07
2019-01-10T12:01:08.729Z,1022.14
2019-01-10T12:02:08.725Z,1022.11
2019-01-10T12:03:09.396Z,1022.01
2019-01-10T12:04:08.905Z,1022.04
2019-01-10T12:05:08.701Z,1022.09